sensor_id;sensor_type;location;lat;lon;timestamp;pressure;altitude;pressure_sealevel;temperature;humidity
17525;BME280;40431;52.198;9.902;2023-04-27T00:02:00;101051.44;;;6.48;87.00
17525;BME280;40431;52.198;9.902;2023-04-27T00:04:27;101045.94;;;6.51;88.29
17525;BME280;40431;52.198;9.902;2023-04-27T00:06:54;101047.59;;;6.56;88.15
17525;BME280;40431;52.198;9.902;2023-04-27T00:09:21;101044.72;;;6.60;89.52
17525;BME280;40431;52.198;9.902;2023-04-27T00:11:47;101041.44;;;6.52;88.21
17525;BME280;40431;52.198;9.902;2023-04-27T00:14:13;101044.91;;;6.56;87.01
17525;BME280;40431;52.198;9.902;2023-04-27T00:16:40;101050.38;;;6.52;86.58
17525;BME280;40431;52.198;9.902;2023-04-27T00:19:06;101042.41;;;6.49;86.65
17525;BME280;40431;52.198;9.902;2023-04-27T00:21:34;101047.75;;;6.51;87.31
17525;BME280;40431;52.198;9.902;2023-04-27T00:24:02;101046.81;;;6.52;86.43
17525;BME280;40431;52.198;9.902;2023-04-27T00:26:28;101051.44;;;6.48;86.80
17525;BME280;40431;52.198;9.902;2023-04-27T00:28:54;101050.63;;;6.46;86.70
17525;BME280;40431;52.198;9.902;2023-04-27T00:31:21;101048.13;;;6.40;87.06
17525;BME280;40431;52.198;9.902;2023-04-27T00:33:48;101043.66;;;6.39;87.67
17525;BME280;40431;52.198;9.902;2023-04-27T00:36:14;101044.50;;;6.41;88.56
17525;BME280;40431;52.198;9.902;2023-04-27T00:38:41;101052.59;;;6.41;88.08
17525;BME280;40431;52.198;9.902;2023-04-27T00:41:08;101049.97;;;6.40;88.64
17525;BME280;40431;52.198;9.902;2023-04-27T00:43:41;101050.94;;;6.37;88.83
17525;BME280;40431;52.198;9.902;2023-04-27T00:46:08;101049.06;;;6.39;89.27
17525;BME280;40431;52.198;9.902;2023-04-27T00:48:34;101040.00;;;6.42;89.87
17525;BME280;40431;52.198;9.902;2023-04-27T00:51:01;101057.13;;;6.39;90.34
17525;BME280;40431;52.198;9.902;2023-04-27T00:53:27;101050.88;;;6.39;90.59
17525;BME280;40431;52.198;9.902;2023-04-27T00:55:54;101065.22;;;6.39;90.65
17525;BME280;40431;52.198;9.902;2023-04-27T00:58:23;101054.50;;;6.38;91.29
17525;BME280;40431;52.198;9.902;2023-04-27T01:00:50;101060.75;;;6.38;91.73
17525;BME280;40431;52.198;9.902;2023-04-27T01:03:16;101059.94;;;6.36;91.98
17525;BME280;40431;52.198;9.902;2023-04-27T01:05:43;101053.78;;;6.32;92.67
17525;BME280;40431;52.198;9.902;2023-04-27T01:08:09;101059.84;;;6.39;93.17
17525;BME280;40431;52.198;9.902;2023-04-27T01:10:35;101062.66;;;6.36;92.72
17525;BME280;40431;52.198;9.902;2023-04-27T01:13:02;101062.66;;;6.36;92.90
17525;BME280;40431;52.198;9.902;2023-04-27T01:15:30;101060.88;;;6.35;93.50
17525;BME280;40431;52.198;9.902;2023-04-27T01:17:57;101059.09;;;6.35;93.31
17525;BME280;40431;52.198;9.902;2023-04-27T01:20:24;101068.16;;;6.33;92.87
17525;BME280;40431;52.198;9.902;2023-04-27T01:22:52;101068.25;;;6.30;93.43
17525;BME280;40431;52.198;9.902;2023-04-27T01:25:20;101069.13;;;6.30;93.87
17525;BME280;40431;52.198;9.902;2023-04-27T01:27:46;101068.25;;;6.30;94.35
17525;BME280;40431;52.198;9.902;2023-04-27T01:30:13;101070.13;;;6.28;94.73
17525;BME280;40431;52.198;9.902;2023-04-27T01:32:39;101080.91;;;6.28;95.09
17525;BME280;40431;52.198;9.902;2023-04-27T01:35:06;101078.16;;;6.29;94.95
17525;BME280;40431;52.198;9.902;2023-04-27T01:37:33;101073.06;;;6.20;95.49
17525;BME280;40431;52.198;9.902;2023-04-27T01:40:00;101077.41;;;6.24;95.85
17525;BME280;40431;52.198;9.902;2023-04-27T01:42:28;101077.53;;;6.21;95.27
17525;BME280;40431;52.198;9.902;2023-04-27T01:44:55;101087.63;;;6.14;96.09
17525;BME280;40431;52.198;9.902;2023-04-27T01:47:21;101089.53;;;6.11;96.74
17525;BME280;40431;52.198;9.902;2023-04-27T01:49:47;101087.91;;;6.07;97.34
17525;BME280;40431;52.198;9.902;2023-04-27T01:52:15;101097.81;;;6.05;97.73
17525;BME280;40431;52.198;9.902;2023-04-27T01:54:41;101099.66;;;6.04;97.90
17525;BME280;40431;52.198;9.902;2023-04-27T01:57:08;101099.75;;;6.01;98.49
17525;BME280;40431;52.198;9.902;2023-04-27T01:59:35;101108.81;;;5.97;98.94
17525;BME280;40431;52.198;9.902;2023-04-27T02:02:02;101108.81;;;5.97;99.30
17525;BME280;40431;52.198;9.902;2023-04-27T02:04:28;101108.81;;;5.97;99.32
17525;BME280;40431;52.198;9.902;2023-04-27T02:06:54;101116.94;;;5.95;99.62
17525;BME280;40431;52.198;9.902;2023-04-27T02:09:21;101117.09;;;5.91;99.90
17525;BME280;40431;52.198;9.902;2023-04-27T02:11:47;101123.53;;;5.87;100.00
17525;BME280;40431;52.198;9.902;2023-04-27T02:14:14;101131.31;;;5.66;100.00
17525;BME280;40431;52.198;9.902;2023-04-27T02:16:41;101127.16;;;5.56;100.00
17525;BME280;40431;52.198;9.902;2023-04-27T02:19:08;101130.94;;;5.50;100.00
17525;BME280;40431;52.198;9.902;2023-04-27T02:21:34;101137.00;;;5.57;100.00
17525;BME280;40431;52.198;9.902;2023-04-27T02:24:01;101138.13;;;5.49;100.00
17525;BME280;40431;52.198;9.902;2023-04-27T02:26:27;101143.56;;;5.48;100.00
17525;BME280;40431;52.198;9.902;2023-04-27T02:28:54;101141.84;;;5.45;100.00
17525;BME280;40431;52.198;9.902;2023-04-27T02:31:21;101147.28;;;5.44;100.00
17525;BME280;40431;52.198;9.902;2023-04-27T02:33:49;101141.38;;;5.31;100.00
17525;BME280;40431;52.198;9.902;2023-04-27T02:36:16;101146.91;;;5.25;100.00
17525;BME280;40431;52.198;9.902;2023-04-27T02:38:42;101156.59;;;5.30;100.00
17525;BME280;40431;52.198;9.902;2023-04-27T02:41:09;101143.41;;;5.23;100.00
17525;BME280;40431;52.198;9.902;2023-04-27T02:43:35;101149.81;;;5.18;100.00
17525;BME280;40431;52.198;9.902;2023-04-27T02:46:02;101156.00;;;5.21;100.00
17525;BME280;40431;52.198;9.902;2023-04-27T02:48:29;101154.34;;;5.16;100.00
17525;BME280;40431;52.198;9.902;2023-04-27T02:50:57;101157.03;;;5.16;100.00
17525;BME280;40431;52.198;9.902;2023-04-27T02:53:23;101144.50;;;5.15;100.00
17525;BME280;40431;52.198;9.902;2023-04-27T02:55:50;101142.81;;;5.11;100.00
17525;BME280;40431;52.198;9.902;2023-04-27T02:58:16;101138.38;;;5.10;100.00
17525;BME280;40431;52.198;9.902;2023-04-27T03:00:42;101149.94;;;5.14;100.00
17525;BME280;40431;52.198;9.902;2023-04-27T03:03:09;101134.66;;;5.14;100.00
17525;BME280;40431;52.198;9.902;2023-04-27T03:05:35;101137.34;;;5.14;100.00
17525;BME280;40431;52.198;9.902;2023-04-27T03:08:04;101140.94;;;5.15;100.00
17525;BME280;40431;52.198;9.902;2023-04-27T03:10:30;101140.13;;;5.11;100.00
17525;BME280;40431;52.198;9.902;2023-04-27T03:12:57;101145.63;;;5.08;100.00
17525;BME280;40431;52.198;9.902;2023-04-27T03:15:23;101144.00;;;5.01;100.00
17525;BME280;40431;52.198;9.902;2023-04-27T03:17:50;101151.31;;;4.96;100.00
17525;BME280;40431;52.198;9.902;2023-04-27T03:20:16;101147.75;;;4.95;100.00
17525;BME280;40431;52.198;9.902;2023-04-27T03:22:43;101150.53;;;4.92;100.00
17525;BME280;40431;52.198;9.902;2023-04-27T03:25:11;101147.91;;;4.89;100.00
17525;BME280;40431;52.198;9.902;2023-04-27T03:27:38;101148.63;;;4.97;100.00
17525;BME280;40431;52.198;9.902;2023-04-27T03:30:05;101144.97;;;4.98;100.00
17525;BME280;40431;52.198;9.902;2023-04-27T03:32:32;101154.69;;;5.04;100.00
17525;BME280;40431;52.198;9.902;2023-04-27T03:34:58;101151.91;;;5.07;100.00
17525;BME280;40431;52.198;9.902;2023-04-27T03:37:25;101151.88;;;5.09;100.00
17525;BME280;40431;52.198;9.902;2023-04-27T03:39:52;101161.81;;;5.05;100.00
17525;BME280;40431;52.198;9.902;2023-04-27T03:42:19;101154.09;;;4.93;100.00
17525;BME280;40431;52.198;9.902;2023-04-27T03:44:46;101157.22;;;4.77;100.00
17525;BME280;40431;52.198;9.902;2023-04-27T03:47:12;101164.34;;;4.78;100.00
17525;BME280;40431;52.198;9.902;2023-04-27T03:49:39;101167.22;;;4.71;100.00
17525;BME280;40431;52.198;9.902;2023-04-27T03:52:05;101166.47;;;4.67;100.00
17525;BME280;40431;52.198;9.902;2023-04-27T03:54:32;101166.50;;;4.64;100.00
17525;BME280;40431;52.198;9.902;2023-04-27T03:56:58;101168.28;;;4.65;100.00
17525;BME280;40431;52.198;9.902;2023-04-27T03:59:28;101166.50;;;4.64;100.00
17525;BME280;40431;52.198;9.902;2023-04-27T04:01:55;101163.09;;;4.59;100.00
17525;BME280;40431;52.198;9.902;2023-04-27T04:04:22;101173.66;;;4.65;100.00
17525;BME280;40431;52.198;9.902;2023-04-27T04:06:48;101167.47;;;4.61;100.00
17525;BME280;40431;52.198;9.902;2023-04-27T04:09:15;101159.41;;;4.63;100.00
17525;BME280;40431;52.198;9.902;2023-04-27T04:11:42;101164.78;;;4.63;100.00
17525;BME280;40431;52.198;9.902;2023-04-27T04:14:09;101162.97;;;4.63;100.00
17525;BME280;40431;52.198;9.902;2023-04-27T04:16:36;101162.09;;;4.61;100.00
17525;BME280;40431;52.198;9.902;2023-04-27T04:19:03;101166.75;;;4.56;100.00
17525;BME280;40431;52.198;9.902;2023-04-27T04:21:29;101173.91;;;4.56;100.00
17525;BME280;40431;52.198;9.902;2023-04-27T04:23:56;101174.81;;;4.56;100.00
17525;BME280;40431;52.198;9.902;2023-04-27T04:26:22;101175.81;;;4.50;100.00
17525;BME280;40431;52.198;9.902;2023-04-27T04:28:49;101173.38;;;4.43;100.00
17525;BME280;40431;52.198;9.902;2023-04-27T04:31:16;101189.25;;;4.50;100.00
17525;BME280;40431;52.198;9.902;2023-04-27T04:33:44;101183.06;;;4.48;100.00
17525;BME280;40431;52.198;9.902;2023-04-27T04:36:10;101185.78;;;4.45;100.00
17525;BME280;40431;52.198;9.902;2023-04-27T04:38:37;101189.34;;;4.47;100.00
17525;BME280;40431;52.198;9.902;2023-04-27T04:41:03;101187.47;;;4.51;100.00
17525;BME280;40431;52.198;9.902;2023-04-27T04:43:30;101187.38;;;4.54;100.00
17525;BME280;40431;52.198;9.902;2023-04-27T04:45:56;101190.91;;;4.56;100.00
17525;BME280;40431;52.198;9.902;2023-04-27T04:48:23;101184.72;;;4.53;100.00
17525;BME280;40431;52.198;9.902;2023-04-27T04:50:51;101192.66;;;4.57;100.00
17525;BME280;40431;52.198;9.902;2023-04-27T04:53:17;101196.41;;;4.51;100.00
17525;BME280;40431;52.198;9.902;2023-04-27T04:55:44;101191.13;;;4.48;100.00
17525;BME280;40431;52.198;9.902;2023-04-27T04:58:10;101195.56;;;4.49;100.00
17525;BME280;40431;52.198;9.902;2023-04-27T05:00:36;101200.94;;;4.48;100.00
17525;BME280;40431;52.198;9.902;2023-04-27T05:03:03;101201.81;;;4.50;100.00
17525;BME280;40431;52.198;9.902;2023-04-27T05:05:31;101202.69;;;4.50;100.00
17525;BME280;40431;52.198;9.902;2023-04-27T05:07:59;101206.13;;;4.56;100.00
17525;BME280;40431;52.198;9.902;2023-04-27T05:10:25;101204.06;;;4.67;100.00
17525;BME280;40431;52.198;9.902;2023-04-27T05:12:51;101208.53;;;4.66;100.00
17525;BME280;40431;52.198;9.902;2023-04-27T05:15:18;101210.22;;;4.71;100.00
17525;BME280;40431;52.198;9.902;2023-04-27T05:17:45;101211.03;;;4.74;100.00
17525;BME280;40431;52.198;9.902;2023-04-27T05:20:11;101211.94;;;4.75;100.00
17525;BME280;40431;52.198;9.902;2023-04-27T05:22:38;101209.34;;;4.70;100.00
17525;BME280;40431;52.198;9.902;2023-04-27T05:25:06;101217.22;;;4.78;100.00
17525;BME280;40431;52.198;9.902;2023-04-27T05:27:34;101219.84;;;4.79;100.00
17525;BME280;40431;52.198;9.902;2023-04-27T05:30:00;101225.13;;;4.84;99.65
17525;BME280;40431;52.198;9.902;2023-04-27T05:32:27;101214.13;;;4.93;99.30
17525;BME280;40431;52.198;9.902;2023-04-27T05:34:53;101222.09;;;4.96;99.36
17525;BME280;40431;52.198;9.902;2023-04-27T05:37:20;101224.66;;;5.01;98.38
17525;BME280;40431;52.198;9.902;2023-04-27T05:39:46;101221.75;;;5.09;98.18
17525;BME280;40431;52.198;9.902;2023-04-27T05:42:14;101220.63;;;5.17;97.58
17525;BME280;40431;52.198;9.902;2023-04-27T05:44:40;101225.00;;;5.22;98.12
17525;BME280;40431;52.198;9.902;2023-04-27T05:47:07;101215.75;;;5.30;97.07
17525;BME280;40431;52.198;9.902;2023-04-27T05:49:33;101223.63;;;5.38;96.27
17525;BME280;40431;52.198;9.902;2023-04-27T05:52:00;101223.84;;;5.30;96.56
17525;BME280;40431;52.198;9.902;2023-04-27T05:54:27;101228.84;;;5.44;95.96
17525;BME280;40431;52.198;9.902;2023-04-27T05:56:53;101227.72;;;5.51;95.79
17525;BME280;40431;52.198;9.902;2023-04-27T05:59:21;101226.69;;;5.56;95.31
17525;BME280;40431;52.198;9.902;2023-04-27T06:01:47;101230.84;;;5.67;96.06
17525;BME280;40431;52.198;9.902;2023-04-27T06:04:13;101231.63;;;5.71;95.35
17525;BME280;40431;52.198;9.902;2023-04-27T06:06:40;101238.69;;;5.75;94.72
17525;BME280;40431;52.198;9.902;2023-04-27T06:09:06;101241.38;;;5.75;96.99
17525;BME280;40431;52.198;9.902;2023-04-27T06:11:33;101240.44;;;5.76;96.98
17525;BME280;40431;52.198;9.902;2023-04-27T06:13:59;101242.13;;;5.80;97.84
17525;BME280;40431;52.198;9.902;2023-04-27T06:16:27;101248.09;;;5.90;98.29
17525;BME280;40431;52.198;9.902;2023-04-27T06:18:54;101238.97;;;5.96;97.85
17525;BME280;40431;52.198;9.902;2023-04-27T06:21:20;101244.13;;;6.04;96.44
17525;BME280;40431;52.198;9.902;2023-04-27T06:23:47;101239.59;;;6.06;95.42
17525;BME280;40431;52.198;9.902;2023-04-27T06:26:13;101248.25;;;6.15;95.18
17525;BME280;40431;52.198;9.902;2023-04-27T06:28:40;101249.94;;;6.20;91.04
17525;BME280;40431;52.198;9.902;2023-04-27T06:31:06;101248.94;;;6.22;91.05
17525;BME280;40431;52.198;9.902;2023-04-27T06:33:34;101246.72;;;6.35;90.50
17525;BME280;40431;52.198;9.902;2023-04-27T06:36:00;101246.59;;;6.40;88.07
17525;BME280;40431;52.198;9.902;2023-04-27T06:38:27;101247.16;;;6.49;89.92
17525;BME280;40431;52.198;9.902;2023-04-27T06:40:53;101249.25;;;6.68;90.75
17525;BME280;40431;52.198;9.902;2023-04-27T06:43:19;101248.28;;;6.71;86.92
17525;BME280;40431;52.198;9.902;2023-04-27T06:45:46;101252.72;;;6.72;85.80
17525;BME280;40431;52.198;9.902;2023-04-27T06:48:12;101257.84;;;6.79;85.44
17525;BME280;40431;52.198;9.902;2023-04-27T06:50:40;101262.09;;;6.87;85.98
17525;BME280;40431;52.198;9.902;2023-04-27T06:53:06;101261.19;;;6.88;85.25
17525;BME280;40431;52.198;9.902;2023-04-27T06:55:33;101265.53;;;6.92;85.10
17525;BME280;40431;52.198;9.902;2023-04-27T06:58:00;101264.97;;;7.07;83.67
17525;BME280;40431;52.198;9.902;2023-04-27T07:00:26;101262.91;;;7.15;82.34
17525;BME280;40431;52.198;9.902;2023-04-27T07:02:52;101264.66;;;7.16;80.13
17525;BME280;40431;52.198;9.902;2023-04-27T07:05:19;101260.38;;;7.11;80.02
17525;BME280;40431;52.198;9.902;2023-04-27T07:07:47;101253.78;;;7.19;82.60
17525;BME280;40431;52.198;9.902;2023-04-27T07:10:13;101249.78;;;7.30;81.60
17525;BME280;40431;52.198;9.902;2023-04-27T07:12:41;101248.63;;;7.37;79.94
17525;BME280;40431;52.198;9.902;2023-04-27T07:15:08;101257.31;;;7.45;77.76
17525;BME280;40431;52.198;9.902;2023-04-27T07:17:34;101252.88;;;7.44;77.98
17525;BME280;40431;52.198;9.902;2023-04-27T07:20:01;101253.47;;;7.52;77.54
17525;BME280;40431;52.198;9.902;2023-04-27T07:22:28;101262.91;;;7.64;76.25
17525;BME280;40431;52.198;9.902;2023-04-27T07:24:55;101257.22;;;7.72;75.54
17525;BME280;40431;52.198;9.902;2023-04-27T07:27:22;101257.81;;;7.80;74.41
17525;BME280;40431;52.198;9.902;2023-04-27T07:29:48;101256.22;;;7.75;74.13
17525;BME280;40431;52.198;9.902;2023-04-27T07:32:15;101251.75;;;7.75;74.38
17525;BME280;40431;52.198;9.902;2023-04-27T07:34:41;101248.31;;;7.70;73.08
17525;BME280;40431;52.198;9.902;2023-04-27T07:37:08;101263.97;;;7.84;73.67
17525;BME280;40431;52.198;9.902;2023-04-27T07:39:34;101261.94;;;7.91;72.80
17525;BME280;40431;52.198;9.902;2023-04-27T07:42:03;101260.88;;;7.95;71.58
17525;BME280;40431;52.198;9.902;2023-04-27T07:44:29;101268.69;;;8.02;72.50
17525;BME280;40431;52.198;9.902;2023-04-27T07:46:56;101265.44;;;8.16;72.32
17525;BME280;40431;52.198;9.902;2023-04-27T07:49:23;101265.25;;;8.21;70.76
17525;BME280;40431;52.198;9.902;2023-04-27T07:51:50;101258.16;;;8.18;69.07
17525;BME280;40431;52.198;9.902;2023-04-27T07:54:16;101265.13;;;8.24;68.73
17525;BME280;40431;52.198;9.902;2023-04-27T07:56:43;101258.34;;;8.36;69.41
17525;BME280;40431;52.198;9.902;2023-04-27T07:59:10;101258.91;;;8.46;66.23
17525;BME280;40431;52.198;9.902;2023-04-27T08:01:38;101260.91;;;8.63;66.22
17525;BME280;40431;52.198;9.902;2023-04-27T08:04:05;101254.34;;;8.68;65.36
17525;BME280;40431;52.198;9.902;2023-04-27T08:06:31;101252.38;;;8.72;64.48
17525;BME280;40431;52.198;9.902;2023-04-27T08:08:58;101255.09;;;8.72;64.35
17525;BME280;40431;52.198;9.902;2023-04-27T08:11:26;101247.41;;;8.83;64.93
17525;BME280;40431;52.198;9.902;2023-04-27T08:13:52;101249.41;;;9.00;65.36
17525;BME280;40431;52.198;9.902;2023-04-27T08:16:20;101245.25;;;8.92;64.74
17525;BME280;40431;52.198;9.902;2023-04-27T08:18:48;101257.44;;;9.02;65.61
17525;BME280;40431;52.198;9.902;2023-04-27T08:21:14;101249.41;;;9.00;63.42
17525;BME280;40431;52.198;9.902;2023-04-27T08:23:40;101243.91;;;9.02;62.00
17525;BME280;40431;52.198;9.902;2023-04-27T08:26:12;101245.97;;;9.17;62.50
17525;BME280;40431;52.198;9.902;2023-04-27T08:28:39;101244.84;;;9.42;62.65
17525;BME280;40431;52.198;9.902;2023-04-27T08:31:05;101242.81;;;9.47;60.34
17525;BME280;40431;52.198;9.902;2023-04-27T08:33:33;101243.38;;;9.35;58.26
17525;BME280;40431;52.198;9.902;2023-04-27T08:35:59;101242.16;;;9.22;60.86
17525;BME280;40431;52.198;9.902;2023-04-27T08:38:26;101242.47;;;8.93;61.93
17525;BME280;40431;52.198;9.902;2023-04-27T08:40:52;101238.97;;;8.91;62.35
17525;BME280;40431;52.198;9.902;2023-04-27T08:43:18;101236.97;;;8.96;61.39
17525;BME280;40431;52.198;9.902;2023-04-27T08:45:47;101233.91;;;9.04;58.31
17525;BME280;40431;52.198;9.902;2023-04-27T08:48:14;101229.44;;;9.24;57.40
17525;BME280;40431;52.198;9.902;2023-04-27T08:50:43;101226.34;;;9.12;55.82
17525;BME280;40431;52.198;9.902;2023-04-27T08:53:15;101228.91;;;9.15;55.64
17525;BME280;40431;52.198;9.902;2023-04-27T08:55:42;101233.75;;;9.48;56.74
17525;BME280;40431;52.198;9.902;2023-04-27T08:58:08;101241.53;;;9.75;57.93
17525;BME280;40431;52.198;9.902;2023-04-27T09:00:39;101233.50;;;9.93;56.44
17525;BME280;40431;52.198;9.902;2023-04-27T09:03:05;101227.84;;;9.78;54.19
17525;BME280;40431;52.198;9.902;2023-04-27T09:05:32;101230.88;;;9.72;54.98
17525;BME280;40431;52.198;9.902;2023-04-27T09:08:01;101231.22;;;9.83;55.49
17525;BME280;40431;52.198;9.902;2023-04-27T09:10:42;101230.00;;;9.91;56.75
17525;BME280;40431;52.198;9.902;2023-04-27T09:13:09;101232.16;;;9.82;54.75
17525;BME280;40431;52.198;9.902;2023-04-27T09:15:40;101228.00;;;9.75;55.07
17525;BME280;40431;52.198;9.902;2023-04-27T09:18:13;101224.28;;;9.78;56.66
17525;BME280;40431;52.198;9.902;2023-04-27T09:20:42;101226.75;;;9.82;54.86
17525;BME280;40431;52.198;9.902;2023-04-27T09:23:09;101220.16;;;9.69;52.61
17525;BME280;40431;52.198;9.902;2023-04-27T09:25:36;101231.22;;;9.44;53.66
17525;BME280;40431;52.198;9.902;2023-04-27T09:28:03;101231.28;;;9.63;55.33
17525;BME280;40431;52.198;9.902;2023-04-27T09:30:29;101228.06;;;9.74;53.00
17525;BME280;40431;52.198;9.902;2023-04-27T09:32:57;101228.66;;;9.80;51.15
17525;BME280;40431;52.198;9.902;2023-04-27T09:35:26;101219.22;;;9.89;53.43
17525;BME280;40431;52.198;9.902;2023-04-27T09:37:54;101223.91;;;10.05;53.99
17525;BME280;40431;52.198;9.902;2023-04-27T09:40:23;101220.22;;;10.25;53.19
17525;BME280;40431;52.198;9.902;2023-04-27T09:42:53;101212.81;;;10.47;53.71
17525;BME280;40431;52.198;9.902;2023-04-27T09:45:19;101218.78;;;10.73;50.68
17525;BME280;40431;52.198;9.902;2023-04-27T09:47:46;101210.00;;;10.85;51.16
17525;BME280;40431;52.198;9.902;2023-04-27T09:50:13;101212.59;;;11.05;51.78
17525;BME280;40431;52.198;9.902;2023-04-27T09:52:40;101204.63;;;11.19;49.69
17525;BME280;40431;52.198;9.902;2023-04-27T09:55:08;101199.94;;;10.88;48.91
17525;BME280;40431;52.198;9.902;2023-04-27T09:57:39;101202.06;;;10.63;49.14
17525;BME280;40431;52.198;9.902;2023-04-27T10:00:20;101198.78;;;10.39;49.35
17525;BME280;40431;52.198;9.902;2023-04-27T10:03:04;101202.28;;;10.41;49.03
17525;BME280;40431;52.198;9.902;2023-04-27T10:05:44;101202.47;;;10.56;48.52
17525;BME280;40431;52.198;9.902;2023-04-27T10:08:15;101202.31;;;10.76;48.41
17525;BME280;40431;52.198;9.902;2023-04-27T10:10:46;101209.50;;;10.95;48.85
17525;BME280;40431;52.198;9.902;2023-04-27T10:13:21;101197.84;;;11.10;48.18
17525;BME280;40431;52.198;9.902;2023-04-27T10:15:48;101207.34;;;11.01;45.92
17525;BME280;40431;52.198;9.902;2023-04-27T10:18:25;101203.69;;;11.02;47.76
17525;BME280;40431;52.198;9.902;2023-04-27T10:20:52;101205.69;;;10.81;46.59
17525;BME280;40431;52.198;9.902;2023-04-27T10:23:22;101208.63;;;10.77;47.33
17525;BME280;40431;52.198;9.902;2023-04-27T10:25:49;101199.91;;;10.70;47.76
17525;BME280;40431;52.198;9.902;2023-04-27T10:28:16;101196.25;;;10.53;48.58
17525;BME280;40431;52.198;9.902;2023-04-27T10:30:45;101200.16;;;10.48;50.12
17525;BME280;40431;52.198;9.902;2023-04-27T10:33:15;101205.31;;;10.52;50.56
17525;BME280;40431;52.198;9.902;2023-04-27T10:35:44;101200.47;;;10.77;49.98
17525;BME280;40431;52.198;9.902;2023-04-27T10:38:15;101201.38;;;10.95;51.11
17525;BME280;40431;52.198;9.902;2023-04-27T10:40:43;101194.97;;;11.13;49.91
17525;BME280;40431;52.198;9.902;2023-04-27T10:43:12;101192.72;;;11.22;45.99
17525;BME280;40431;52.198;9.902;2023-04-27T10:45:38;101188.97;;;11.24;46.09
17525;BME280;40431;52.198;9.902;2023-04-27T10:48:07;101193.03;;;11.33;46.40
17525;BME280;40431;52.198;9.902;2023-04-27T10:50:34;101200.19;;;11.34;46.10
17525;BME280;40431;52.198;9.902;2023-04-27T10:53:03;101194.94;;;11.31;44.56
17525;BME280;40431;52.198;9.902;2023-04-27T10:55:30;101189.97;;;11.39;46.70
17525;BME280;40431;52.198;9.902;2023-04-27T10:57:57;101186.88;;;11.63;46.56
17525;BME280;40431;52.198;9.902;2023-04-27T11:00:25;101185.91;;;11.64;43.87
17525;BME280;40431;52.198;9.902;2023-04-27T11:02:53;101193.97;;;11.65;44.43
17525;BME280;40431;52.198;9.902;2023-04-27T11:05:22;101172.66;;;11.58;44.12
17525;BME280;40431;52.198;9.902;2023-04-27T11:08:03;101170.06;;;11.72;45.47
17525;BME280;40431;52.198;9.902;2023-04-27T11:10:30;101178.94;;;11.92;45.90
17525;BME280;40431;52.198;9.902;2023-04-27T11:12:56;101172.38;;;11.96;45.64
17525;BME280;40431;52.198;9.902;2023-04-27T11:15:23;101170.97;;;11.89;41.32
17525;BME280;40431;52.198;9.902;2023-04-27T11:17:49;101164.94;;;11.99;42.50
17525;BME280;40431;52.198;9.902;2023-04-27T11:20:24;101174.28;;;12.26;43.44
17525;BME280;40431;52.198;9.902;2023-04-27T11:22:50;101159.22;;;12.04;40.53
17525;BME280;40431;52.198;9.902;2023-04-27T11:25:17;101163.75;;;11.88;40.79
17525;BME280;40431;52.198;9.902;2023-04-27T11:27:51;101160.56;;;11.97;42.79
17525;BME280;40431;52.198;9.902;2023-04-27T11:30:19;101167.19;;;12.07;42.68
17525;BME280;40431;52.198;9.902;2023-04-27T11:32:46;101170.78;;;11.92;41.41
17525;BME280;40431;52.198;9.902;2023-04-27T11:35:13;101169.72;;;11.78;41.90
17525;BME280;40431;52.198;9.902;2023-04-27T11:37:41;101168.06;;;11.92;42.86
17525;BME280;40431;52.198;9.902;2023-04-27T11:40:08;101166.34;;;12.07;41.50
17525;BME280;40431;52.198;9.902;2023-04-27T11:42:35;101168.34;;;12.03;40.59
17525;BME280;40431;52.198;9.902;2023-04-27T11:45:04;101171.44;;;11.97;40.04
17525;BME280;40431;52.198;9.902;2023-04-27T11:47:31;101163.41;;;12.10;39.88
17525;BME280;40431;52.198;9.902;2023-04-27T11:50:00;101164.56;;;12.06;40.23
17525;BME280;40431;52.198;9.902;2023-04-27T11:52:29;101165.34;;;11.92;39.96
17525;BME280;40431;52.198;9.902;2023-04-27T11:54:58;101167.03;;;12.10;40.60
17525;BME280;40431;52.198;9.902;2023-04-27T11:57:26;101160.81;;;12.08;40.91
17525;BME280;40431;52.198;9.902;2023-04-27T11:59:54;101159.91;;;12.24;41.42
17525;BME280;40431;52.198;9.902;2023-04-27T12:02:21;101163.00;;;12.01;41.82
17525;BME280;40431;52.198;9.902;2023-04-27T12:04:48;101153.50;;;11.93;41.23
17525;BME280;40431;52.198;9.902;2023-04-27T12:07:14;101153.97;;;12.01;40.50
17525;BME280;40431;52.198;9.902;2023-04-27T12:09:41;101153.63;;;12.23;43.25
17525;BME280;40431;52.198;9.902;2023-04-27T12:12:09;101146.19;;;12.41;40.93
17525;BME280;40431;52.198;9.902;2023-04-27T12:14:36;101150.38;;;12.47;40.05
17525;BME280;40431;52.198;9.902;2023-04-27T12:17:03;101148.31;;;12.66;40.99
17525;BME280;40431;52.198;9.902;2023-04-27T12:19:29;101142.88;;;12.66;41.08
17525;BME280;40431;52.198;9.902;2023-04-27T12:21:56;101145.25;;;12.73;40.76
17525;BME280;40431;52.198;9.902;2023-04-27T12:24:23;101140.66;;;12.73;39.91
17525;BME280;40431;52.198;9.902;2023-04-27T12:26:49;101136.78;;;12.77;39.80
17525;BME280;40431;52.198;9.902;2023-04-27T12:29:17;101136.97;;;12.74;40.20
17525;BME280;40431;52.198;9.902;2023-04-27T12:31:44;101132.59;;;12.72;39.73
17525;BME280;40431;52.198;9.902;2023-04-27T12:34:11;101133.16;;;12.62;39.53
17525;BME280;40431;52.198;9.902;2023-04-27T12:36:37;101134.66;;;12.82;40.71
17525;BME280;40431;52.198;9.902;2023-04-27T12:39:12;101131.25;;;12.79;39.41
17525;BME280;40431;52.198;9.902;2023-04-27T12:41:39;101124.13;;;12.76;40.44
17525;BME280;40431;52.198;9.902;2023-04-27T12:44:05;101118.44;;;12.81;40.21
17525;BME280;40431;52.198;9.902;2023-04-27T12:46:33;101123.50;;;13.01;40.24
17525;BME280;40431;52.198;9.902;2023-04-27T12:48:59;101126.34;;;13.29;40.58
17525;BME280;40431;52.198;9.902;2023-04-27T12:51:26;101117.13;;;13.46;40.27
17525;BME280;40431;52.198;9.902;2023-04-27T12:53:53;101121.78;;;13.58;40.11
17525;BME280;40431;52.198;9.902;2023-04-27T12:56:20;101115.25;;;13.75;39.95